Time;durP1;ratioP1;P1;durP2;ratioP2;P2;SDS_P1;SDS_P2;PMS_P1;PMS_P2;Temp;Humidity;BMP_temperature;BMP_pressure;BME280_temperature;BME280_humidity;BME280_pressure;Samples;Min_cycle;Max_cycle;Signal;HPM_P1;HPM_P2
2022/05/08 00:00:59;;;;;;;7.60;3.97;;;;;;;8.37;63.50;100774.31;5109048;28;20042;-28
2022/05/08 00:03:25;;;;;;;9.30;4.03;;;;;;;8.36;63.25;100747.97;5092216;28;20032;-28
2022/05/08 00:05:51;;;;;;;7.50;4.10;;;;;;;8.71;61.60;100748.97;5109224;28;20105;-32
2022/05/08 00:08:16;;;;;;;8.52;3.55;;;;;;;8.60;62.93;100765.41;5110742;28;20024;-28
2022/05/08 00:10:42;;;;;;;7.85;3.78;;;;;;;8.41;62.46;100735.78;5110482;28;20064;-28
2022/05/08 00:13:09;;;;;;;10.32;3.72;;;;;;;8.60;62.37;100755.63;5110705;28;20050;-28
2022/05/08 00:15:35;;;;;;;8.98;3.53;;;;;;;8.49;62.82;100765.91;5108836;28;20020;-30
2022/05/08 00:18:01;;;;;;;10.00;3.97;;;;;;;8.45;63.34;100750.31;5110503;28;20035;-31
2022/05/08 00:20:26;;;;;;;7.65;4.03;;;;;;;8.76;61.87;100756.38;5110459;28;20032;-28
2022/05/08 00:22:51;;;;;;;8.68;4.38;;;;;;;9.10;60.81;100768.97;5109141;28;20032;-28
2022/05/08 00:25:17;;;;;;;7.40;3.70;;;;;;;8.59;62.09;100739.84;5110720;28;20039;-30
2022/05/08 00:27:42;;;;;;;7.07;3.80;;;;;;;8.60;61.45;100760.09;5110344;28;20047;-28
2022/05/08 00:30:08;;;;;;;8.43;4.13;;;;;;;8.62;61.89;100760.72;5110094;28;20129;-32
2022/05/08 00:32:34;;;;;;;7.30;3.88;;;;;;;8.84;60.81;100743.75;5110154;28;20024;-30
2022/05/08 00:34:59;;;;;;;8.35;4.35;;;;;;;8.61;62.10;100735.16;5110655;28;20162;-28
2022/05/08 00:37:25;;;;;;;7.55;4.00;;;;;;;8.94;61.23;100758.59;5109816;28;20109;-32
2022/05/08 00:39:51;;;;;;;7.32;3.72;;;;;;;8.79;61.66;100756.00;5109815;28;20058;-32
2022/05/08 00:42:16;;;;;;;10.00;4.18;;;;;;;8.54;61.74;100721.81;5109876;28;20023;-30
2022/05/08 00:44:42;;;;;;;11.05;3.90;;;;;;;8.04;63.88;100736.75;5108609;28;20024;-31
2022/05/08 00:47:07;;;;;;;8.50;4.20;;;;;;;7.95;64.20;100746.66;5109598;28;20076;-28
2022/05/08 00:49:32;;;;;;;9.95;4.32;;;;;;;8.35;63.06;100747.13;5109457;28;20035;-27
2022/05/08 00:51:59;;;;;;;9.38;4.40;;;;;;;8.31;62.90;100740.53;5109784;28;20088;-28
2022/05/08 00:54:26;;;;;;;8.35;4.30;;;;;;;8.55;62.92;100752.69;5110277;28;20104;-27
2022/05/08 00:56:53;;;;;;;9.27;4.10;;;;;;;8.34;63.27;100753.47;5109940;28;20176;-31
2022/05/08 00:59:19;;;;;;;7.72;4.00;;;;;;;8.02;64.34;100739.59;5091355;28;20034;-30
2022/05/08 01:01:44;;;;;;;7.30;4.57;;;;;;;8.29;64.10;100755.03;5109375;28;20097;-30
2022/05/08 01:04:10;;;;;;;6.38;3.97;;;;;;;8.22;63.58;100752.28;5108467;28;20077;-29
2022/05/08 01:06:35;;;;;;;7.95;4.35;;;;;;;8.23;63.50;100757.44;5109744;28;20031;-28
2022/05/08 01:09:01;;;;;;;10.68;4.55;;;;;;;8.27;63.83;100752.53;5109671;28;20031;-31
2022/05/08 01:11:27;;;;;;;8.05;4.65;;;;;;;8.25;62.97;100750.09;5107464;28;20030;-32
2022/05/08 01:13:53;;;;;;;8.95;5.50;;;;;;;8.07;64.00;100767.41;5091025;28;20020;-27
2022/05/08 01:16:20;;;;;;;9.00;4.43;;;;;;;8.04;64.44;100758.81;5109550;28;20471;-27
2022/05/08 01:18:48;;;;;;;9.00;5.03;;;;;;;8.31;63.86;100753.81;5091494;28;20505;-29
2022/05/08 01:21:22;;;;;;;8.68;4.85;;;;;;;8.03;63.89;100757.19;5091087;28;20282;-28
2022/05/08 01:23:47;;;;;;;9.25;4.43;;;;;;;7.80;65.34;100761.75;5090915;28;20491;-28
2022/05/08 01:26:20;;;;;;;10.02;5.15;;;;;;;7.93;63.93;100761.13;5107716;28;20076;-28
2022/05/08 01:28:45;;;;;;;10.75;4.72;;;;;;;7.76;65.12;100763.94;5090797;28;20111;-28
2022/05/08 01:31:11;;;;;;;8.70;4.90;;;;;;;8.16;63.39;100739.75;5109233;28;20047;-29
2022/05/08 01:33:36;;;;;;;7.65;4.75;;;;;;;7.74;64.69;100735.94;5109082;28;20469;-28
2022/05/08 01:36:02;;;;;;;9.07;4.85;;;;;;;8.25;63.57;100749.25;5109100;28;20166;-28
2022/05/08 01:38:28;;;;;;;12.77;5.38;;;;;;;7.91;64.11;100758.66;5108925;28;20130;-30
2022/05/08 01:40:55;;;;;;;12.68;5.25;;;;;;;8.05;63.98;100759.66;5109055;28;20023;-29
2022/05/08 01:43:20;;;;;;;13.88;5.15;;;;;;;8.12;63.64;100754.41;5108970;28;20031;-29
2022/05/08 01:45:47;;;;;;;8.25;4.13;;;;;;;7.56;65.04;100758.38;5107635;28;20030;-28
2022/05/08 01:48:27;;;;;;;9.95;4.85;;;;;;;7.80;64.87;100751.13;5108967;28;20142;-28
2022/05/08 01:50:57;;;;;;;9.20;5.25;;;;;;;7.57;64.71;100738.78;5108549;28;20474;-31
2022/05/08 01:53:25;;;;;;;11.75;4.80;;;;;;;7.83;63.81;100756.09;5107586;28;20100;-29
2022/05/08 01:55:55;;;;;;;9.90;5.35;;;;;;;7.83;63.29;100751.59;5090073;28;20475;-31
2022/05/08 01:58:23;;;;;;;9.80;5.05;;;;;;;7.47;64.17;100762.13;5090460;28;20042;-29
2022/05/08 02:00:49;;;;;;;11.18;5.32;;;;;;;7.54;64.14;100757.75;5090285;28;20058;-29
2022/05/08 02:03:15;;;;;;;11.57;5.72;;;;;;;7.79;63.00;100760.94;5108486;28;20456;-29
2022/05/08 02:05:42;;;;;;;11.27;5.22;;;;;;;7.57;63.52;100767.97;5089946;28;20054;-28
2022/05/08 02:08:09;;;;;;;14.35;6.72;;;;;;;7.32;63.93;100759.44;5090050;28;20042;-29
2022/05/08 02:10:34;;;;;;;10.32;6.35;;;;;;;7.07;64.83;100756.19;5089922;28;20114;-29
2022/05/08 02:13:00;;;;;;;11.30;5.65;;;;;;;7.16;64.50;100756.94;5109063;28;20114;-28
2022/05/08 02:15:29;;;;;;;8.38;5.30;;;;;;;6.87;65.54;100739.94;5108863;28;20027;-28
2022/05/08 02:17:58;;;;;;;10.30;5.60;;;;;;;7.05;65.45;100763.50;5108455;28;20031;-29
2022/05/08 02:20:23;;;;;;;9.68;5.85;;;;;;;7.27;64.61;100760.97;5108506;28;20072;-28
2022/05/08 02:22:49;;;;;;;9.40;5.10;;;;;;;7.31;64.74;100762.28;5107981;28;20027;-28
2022/05/08 02:25:14;;;;;;;10.25;5.10;;;;;;;7.38;64.12;100741.97;5108051;28;20106;-29
2022/05/08 02:27:41;;;;;;;9.73;5.72;;;;;;;7.38;63.86;100757.91;5107954;28;20028;-29
2022/05/08 02:30:09;;;;;;;8.95;4.93;;;;;;;7.41;64.10;100762.84;5108283;28;20034;-30
2022/05/08 02:32:35;;;;;;;10.98;5.60;;;;;;;7.58;63.69;100752.88;5089807;28;20032;-29
2022/05/08 02:35:01;;;;;;;10.85;5.47;;;;;;;7.47;63.86;100756.00;5089728;28;20042;-28
2022/05/08 02:37:27;;;;;;;9.35;5.32;;;;;;;7.42;64.20;100748.56;5107783;28;20115;-28
2022/05/08 02:39:53;;;;;;;10.93;5.20;;;;;;;7.64;63.41;100749.50;5102687;28;20499;-28
2022/05/08 02:42:18;;;;;;;9.98;5.00;;;;;;;7.29;64.50;100737.75;5087893;28;20020;-30
2022/05/08 02:44:44;;;;;;;9.73;4.70;;;;;;;7.34;64.57;100757.44;5085957;28;20036;-31
2022/05/08 02:47:09;;;;;;;12.30;4.90;;;;;;;6.74;66.87;100729.94;5087562;28;20063;-28
2022/05/08 02:49:35;;;;;;;12.93;5.10;;;;;;;6.34;68.26;100750.41;5086898;28;20024;-28
2022/05/08 02:52:00;;;;;;;8.63;5.25;;;;;;;6.32;68.89;100751.56;5087091;28;20035;-30
2022/05/08 02:54:25;;;;;;;9.32;5.47;;;;;;;6.51;67.59;100752.94;5086023;28;20040;-30
2022/05/08 02:59:35;;;;;;;9.75;5.53;;;;;;;6.50;67.64;100757.44;5087489;28;20035;-27
2022/05/08 03:02:00;;;;;;;10.05;5.53;;;;;;;6.57;66.82;100760.19;5087034;28;20063;-28
2022/05/08 03:04:26;;;;;;;11.45;5.35;;;;;;;6.67;66.55;100760.78;5087146;28;20422;-28
2022/05/08 03:06:51;;;;;;;10.13;5.70;;;;;;;6.48;67.69;100761.22;5087023;28;20539;-30
2022/05/08 03:09:17;;;;;;;9.93;5.28;;;;;;;6.54;66.95;100765.84;5087164;28;20039;-29
2022/05/08 03:11:42;;;;;;;8.73;5.00;;;;;;;5.86;69.75;100746.94;5086947;28;20720;-28
2022/05/08 03:14:08;;;;;;;9.73;5.03;;;;;;;5.70;69.85;100744.34;5087137;28;20035;-28
2022/05/08 03:16:33;;;;;;;9.80;5.32;;;;;;;5.92;69.21;100762.13;5085836;28;20028;-28
2022/05/08 03:18:59;;;;;;;9.63;5.30;;;;;;;6.11;68.78;100776.00;5086922;28;20174;-30
2022/05/08 03:21:25;;;;;;;11.23;5.55;;;;;;;6.06;68.82;100767.75;5086956;28;20189;-28
2022/05/08 03:23:51;;;;;;;9.00;5.28;;;;;;;5.83;69.57;100769.28;5102463;28;20043;-27
2022/05/08 03:26:19;;;;;;;9.95;5.38;;;;;;;5.96;68.00;100773.25;5085731;28;20025;-30
2022/05/08 03:28:45;;;;;;;10.27;5.63;;;;;;;6.08;68.86;100777.16;5087107;28;20092;-30
2022/05/08 03:31:11;;;;;;;11.43;5.18;;;;;;;6.31;67.05;100785.16;5102362;28;20209;-28
2022/05/08 03:33:38;;;;;;;9.65;4.88;;;;;;;6.21;67.17;100740.38;5086634;28;20754;-30
2022/05/08 03:36:04;;;;;;;10.38;5.35;;;;;;;6.27;67.20;100775.91;5087541;28;20131;-29
2022/05/08 03:38:30;;;;;;;9.30;4.43;;;;;;;6.37;67.12;100775.72;5096623;28;20844;-28
2022/05/08 03:40:56;;;;;;;10.75;5.60;;;;;;;6.48;66.98;100782.44;5111524;28;20027;-28
2022/05/08 03:43:22;;;;;;;8.70;5.13;;;;;;;6.49;65.49;100760.25;5111789;28;20067;-28
2022/05/08 03:45:51;;;;;;;9.65;4.80;;;;;;;6.38;67.04;100764.94;5110827;28;20070;-28
2022/05/08 03:48:17;;;;;;;14.60;5.22;;;;;;;6.40;67.62;100786.78;5092459;28;20063;-29
2022/05/08 03:50:43;;;;;;;10.38;5.65;;;;;;;6.20;67.97;100770.50;5092600;28;20027;-27
2022/05/08 03:53:09;;;;;;;10.45;4.85;;;;;;;6.02;68.14;100768.09;5093019;28;20028;-28
2022/05/08 03:55:34;;;;;;;12.70;5.97;;;;;;;6.23;68.54;100791.34;5110865;28;20024;-28
2022/05/08 03:58:00;;;;;;;12.63;6.40;;;;;;;6.44;68.03;100788.09;5111580;28;20450;-28
2022/05/08 04:00:25;;;;;;;12.77;6.80;;;;;;;6.54;68.63;100792.34;5111345;28;20020;-33
2022/05/08 04:02:51;;;;;;;18.10;7.25;;;;;;;6.51;68.26;100795.34;5110679;28;20472;-29
2022/05/08 04:05:16;;;;;;;9.98;5.97;;;;;;;6.75;67.73;100792.53;5111090;28;20028;-30
2022/05/08 04:07:42;;;;;;;11.00;6.95;;;;;;;6.83;68.20;100797.78;5110705;28;20070;-28
2022/05/08 04:10:08;;;;;;;12.55;7.10;;;;;;;6.49;70.08;100805.28;5110728;28;20048;-26
2022/05/08 04:12:35;;;;;;;11.85;7.60;;;;;;;6.04;71.08;100763.44;5110659;28;20024;-27
2022/05/08 04:15:00;;;;;;;8.50;5.13;;;;;;;6.07;73.18;100799.38;5092225;28;20027;-29
2022/05/08 04:17:30;;;;;;;9.40;4.45;;;;;;;6.12;72.78;100785.59;5110566;28;20042;-30
2022/05/08 04:19:55;;;;;;;7.20;4.50;;;;;;;6.00;73.01;100801.84;5092174;28;20895;-29
2022/05/08 04:25:07;;;;;;;9.13;4.88;;;;;;;7.16;69.59;100808.16;5110605;28;20035;-29
2022/05/08 04:27:36;;;;;;;10.70;4.68;;;;;;;7.09;69.53;100780.72;5110124;28;20169;-30
2022/05/08 04:30:03;;;;;;;11.32;5.32;;;;;;;6.98;69.66;100794.38;5091558;28;20054;-31
2022/05/08 04:32:28;;;;;;;10.85;6.03;;;;;;;7.35;68.69;100788.25;5110107;28;20027;-29
2022/05/08 04:34:54;;;;;;;8.77;5.38;;;;;;;7.17;69.08;100798.38;5110356;28;20026;-28
2022/05/08 04:37:19;;;;;;;12.30;6.20;;;;;;;7.04;69.54;100805.09;5091837;28;20065;-29
2022/05/08 04:39:44;;;;;;;9.75;5.93;;;;;;;7.16;69.67;100802.84;5109825;28;20492;-29
2022/05/08 04:42:10;;;;;;;10.77;5.85;;;;;;;7.27;69.25;100798.13;5110461;28;20772;-28
2022/05/08 04:44:35;;;;;;;11.52;6.53;;;;;;;7.46;69.97;100797.63;5109744;28;20760;-29
2022/05/08 04:47:01;;;;;;;9.32;5.55;;;;;;;7.65;69.22;100807.72;5110143;28;20038;-28
2022/05/08 04:49:27;;;;;;;14.68;6.60;;;;;;;7.82;66.53;100792.44;5074817;28;20059;-30
2022/05/08 04:51:53;;;;;;;9.68;5.47;;;;;;;7.75;66.94;100788.06;5091288;28;20100;-28
2022/05/08 04:54:18;;;;;;;10.77;5.97;;;;;;;8.14;65.29;100786.94;5109958;28;20031;-29
2022/05/08 04:56:44;;;;;;;13.80;6.15;;;;;;;8.09;66.83;100807.91;5109971;28;20092;-30
2022/05/08 04:59:09;;;;;;;93.30;41.25;;;;;;;8.57;65.75;100779.09;5108289;28;20027;-29
2022/05/08 05:01:35;;;;;;;16.98;9.13;;;;;;;9.05;63.59;100804.13;5109655;28;20486;-31
2022/05/08 05:04:00;;;;;;;16.38;8.60;;;;;;;9.31;63.48;100804.53;5109723;28;20084;-29
2022/05/08 05:06:26;;;;;;;12.70;6.97;;;;;;;9.25;63.72;100817.63;5109446;28;20019;-31
2022/05/08 05:08:51;;;;;;;11.48;5.63;;;;;;;9.07;65.66;100829.72;5109637;28;20027;-28
2022/05/08 05:11:17;;;;;;;11.43;6.78;;;;;;;9.43;65.64;100816.31;5109391;28;20036;-32
2022/05/08 05:13:42;;;;;;;12.23;6.90;;;;;;;9.10;65.41;100811.53;5109081;28;20067;-31
2022/05/08 05:16:08;;;;;;;10.80;6.28;;;;;;;9.33;65.48;100815.81;5109739;28;20030;-32
2022/05/08 05:18:33;;;;;;;11.10;6.68;;;;;;;9.18;65.82;100803.41;5108123;28;20038;-28
2022/05/08 05:20:59;;;;;;;15.82;8.02;;;;;;;9.49;64.89;100796.09;5108137;28;20510;-29
2022/05/08 05:23:24;;;;;;;13.07;6.65;;;;;;;9.60;64.47;100812.38;5109442;28;20403;-29
2022/05/08 05:25:50;;;;;;;14.77;7.63;;;;;;;9.86;64.33;100808.22;5109103;28;20059;-28
2022/05/08 05:28:16;;;;;;;12.65;9.15;;;;;;;10.31;64.25;100819.34;5108822;28;20032;-29
2022/05/08 05:30:42;;;;;;;19.05;12.93;;;;;;;10.33;63.96;100811.97;5090358;28;20476;-28
2022/05/08 05:33:07;;;;;;;23.75;13.30;;;;;;;10.44;64.27;100810.56;5107635;28;20027;-29
2022/05/08 05:35:37;;;;;;;20.63;12.70;;;;;;;10.67;63.43;100810.25;5108946;28;20707;-29
2022/05/08 05:38:03;;;;;;;17.92;10.90;;;;;;;10.66;61.89;100797.91;5108380;28;20063;-32
2022/05/08 05:40:28;;;;;;;17.48;10.85;;;;;;;10.48;65.24;100813.66;5107217;28;20070;-29
2022/05/08 05:42:54;;;;;;;17.15;10.75;;;;;;;10.44;66.01;100830.06;5108658;28;20020;-36
2022/05/08 05:45:20;;;;;;;17.40;11.00;;;;;;;10.78;63.27;100825.66;5107483;28;20084;-33
2022/05/08 05:47:52;;;;;;;15.75;9.80;;;;;;;11.15;62.17;100822.66;5108600;28;20110;-28
2022/05/08 05:50:23;;;;;;;17.08;10.48;;;;;;;11.05;63.97;100828.38;5108607;28;20034;-33
2022/05/08 05:52:50;;;;;;;17.90;10.60;;;;;;;11.23;64.37;100812.59;5108746;28;20027;-30
2022/05/08 05:55:16;;;;;;;15.50;9.15;;;;;;;11.38;63.73;100824.91;5106947;28;20031;-30
2022/05/08 05:57:42;;;;;;;12.68;8.18;;;;;;;11.33;64.20;100803.34;5107997;28;20039;-28
2022/05/08 06:00:10;;;;;;;15.73;8.18;;;;;;;11.08;65.44;100814.63;5108459;28;20028;-29
2022/05/08 06:02:37;;;;;;;13.75;8.20;;;;;;;11.61;65.72;100819.97;5108597;28;20028;-31
2022/05/08 06:05:03;;;;;;;12.85;7.35;;;;;;;11.59;66.09;100819.38;5089788;28;20034;-33
2022/05/08 06:07:29;;;;;;;13.15;7.93;;;;;;;11.19;67.02;100822.03;5108494;28;20074;-32
2022/05/08 06:09:54;;;;;;;15.90;7.80;;;;;;;10.98;67.78;100815.03;5106712;28;20048;-30
2022/05/08 06:12:20;;;;;;;13.40;7.68;;;;;;;11.12;68.03;100804.38;5107853;28;20826;-33
2022/05/08 06:14:48;;;;;;;16.05;8.32;;;;;;;11.06;68.18;100790.00;5108155;28;20399;-28
2022/05/08 06:17:13;;;;;;;14.20;7.82;;;;;;;11.16;67.89;100803.75;5108118;28;20042;-28
2022/05/08 06:19:39;;;;;;;14.05;7.45;;;;;;;11.21;66.70;100774.59;5108024;28;20031;-32
2022/05/08 06:22:05;;;;;;;12.30;6.82;;;;;;;11.54;66.32;100788.94;5106375;28;20104;-28
2022/05/08 06:24:31;;;;;;;12.63;6.75;;;;;;;11.80;63.76;100790.75;5107947;28;20058;-28
2022/05/08 06:26:57;;;;;;;13.18;5.13;;;;;;;12.24;60.82;100807.94;5107705;28;20049;-29
2022/05/08 06:29:22;;;;;;;11.13;5.78;;;;;;;12.44;61.63;100776.59;5107925;28;20526;-29
2022/05/08 06:31:51;;;;;;;11.82;6.80;;;;;;;12.51;63.81;100791.78;5108142;28;20023;-31
2022/05/08 06:34:17;;;;;;;13.75;6.68;;;;;;;12.48;64.11;100790.34;5089300;28;20122;-28
2022/05/08 06:36:43;;;;;;;12.05;6.32;;;;;;;12.53;63.76;100811.13;5107366;28;20035;-28
2022/05/08 06:39:08;;;;;;;11.13;6.15;;;;;;;12.79;63.64;100792.25;5107587;28;20064;-28
2022/05/08 06:41:34;;;;;;;13.55;6.90;;;;;;;12.55;62.73;100801.03;5107367;28;20032;-30
2022/05/08 06:43:59;;;;;;;12.95;6.68;;;;;;;12.70;62.64;100785.47;5089195;28;20032;-30
2022/05/08 06:46:25;;;;;;;13.00;6.38;;;;;;;13.19;61.61;100789.25;5106178;28;20491;-31
2022/05/08 06:48:50;;;;;;;10.60;5.50;;;;;;;13.48;62.93;100805.75;5107459;28;20028;-30
2022/05/08 06:51:16;;;;;;;9.77;5.18;;;;;;;13.75;60.92;100802.81;5107529;28;20027;-29
2022/05/08 06:53:43;;;;;;;12.43;6.18;;;;;;;13.99;60.40;100809.16;5107267;28;20038;-29
2022/05/08 06:56:12;;;;;;;11.07;5.07;;;;;;;13.86;59.04;100807.44;5105726;28;20036;-29
2022/05/08 07:01:34;;;;;;;12.23;6.28;;;;;;;13.87;58.12;100806.38;5089067;28;20110;-33
2022/05/08 07:01:34;;;;;;;12.27;5.93;;;;;;;14.16;57.55;100801.31;5107342;28;20514;-29
2022/05/08 07:04:03;;;;;;;8.80;5.50;;;;;;;14.11;56.98;100774.38;5107157;28;20054;-32
2022/05/08 07:06:29;;;;;;;8.73;5.30;;;;;;;14.21;57.60;100782.72;5105560;28;21033;-29
2022/05/08 07:08:55;;;;;;;11.20;5.05;;;;;;;14.55;56.67;100785.78;5106869;28;20035;-30
2022/05/08 07:11:21;;;;;;;8.55;4.28;;;;;;;14.25;57.26;100781.22;5106376;28;20458;-31
2022/05/08 07:13:46;;;;;;;8.40;5.18;;;;;;;14.64;58.27;100800.56;5106801;28;20475;-29
2022/05/08 07:16:11;;;;;;;10.13;5.07;;;;;;;14.88;55.35;100792.59;5107021;28;20494;-30
2022/05/08 07:18:37;;;;;;;11.57;5.85;;;;;;;14.45;57.70;100771.03;5107305;28;20036;-31
2022/05/08 07:21:03;;;;;;;9.50;4.57;;;;;;;15.01;56.12;100784.31;5106883;28;20035;-29
2022/05/08 07:23:28;;;;;;;9.30;4.57;;;;;;;14.83;55.74;100798.63;5107192;28;20514;-30
2022/05/08 07:25:54;;;;;;;9.30;4.82;;;;;;;14.59;55.78;100781.66;5106766;28;20024;-35
2022/05/08 07:28:19;;;;;;;11.43;4.88;;;;;;;14.96;56.86;100786.88;5106945;28;20020;-30
2022/05/08 07:30:45;;;;;;;8.57;4.47;;;;;;;15.17;53.79;100789.00;5106776;28;20030;-29
2022/05/08 07:33:10;;;;;;;8.38;4.03;;;;;;;15.52;52.80;100773.97;5106876;28;20059;-33
2022/05/08 07:38:21;;;;;;;9.60;4.40;;;;;;;15.71;51.37;100782.72;5106883;28;20059;-29
2022/05/08 07:40:48;;;;;;;10.50;4.57;;;;;;;15.72;53.69;100774.44;5107160;28;20074;-29
2022/05/08 07:43:15;;;;;;;8.93;4.10;;;;;;;15.55;54.07;100776.16;5088598;28;20024;-29
2022/05/08 07:45:45;;;;;;;10.32;4.43;;;;;;;15.41;53.58;100767.53;5104491;28;20024;-29
2022/05/08 07:48:11;;;;;;;8.50;4.60;;;;;;;15.69;52.31;100785.63;5062469;28;20034;-28
2022/05/08 07:50:36;;;;;;;9.38;3.85;;;;;;;15.57;51.31;100787.50;5087649;28;20126;-30
2022/05/08 07:53:02;;;;;;;11.25;3.92;;;;;;;15.78;51.37;100786.16;5095685;28;20118;-28
2022/05/08 07:55:28;;;;;;;10.60;3.75;;;;;;;16.23;49.15;100777.38;5096022;28;20770;-33
2022/05/08 07:57:53;;;;;;;7.28;3.80;;;;;;;16.45;48.59;100756.00;5087355;28;20403;-30
2022/05/08 08:00:19;;;;;;;8.50;4.38;;;;;;;16.73;48.34;100765.91;5087436;28;20024;-29
2022/05/08 08:02:44;;;;;;;6.45;3.72;;;;;;;16.49;48.24;100751.78;5104266;28;20738;-30
2022/05/08 08:05:10;;;;;;;14.00;3.72;;;;;;;16.28;49.26;100772.09;5076395;28;20216;-34
2022/05/08 08:07:36;;;;;;;6.70;3.58;;;;;;;16.58;49.12;100777.25;5088390;28;20027;-29
2022/05/08 08:10:05;;;;;;;9.23;4.68;;;;;;;16.64;47.73;100753.94;5089533;28;20039;-31
2022/05/08 08:12:31;;;;;;;10.63;4.15;;;;;;;16.97;47.67;100779.31;5075807;28;20028;-29
2022/05/08 08:14:57;;;;;;;10.20;3.63;;;;;;;16.95;48.22;100770.66;5105487;28;20081;-28
2022/05/08 08:17:23;;;;;;;5.78;3.03;;;;;;;17.22;46.84;100777.03;5067469;28;20142;-32
2022/05/08 08:19:49;;;;;;;5.28;3.05;;;;;;;17.18;46.32;100766.97;5086951;28;20558;-30
2022/05/08 08:22:14;;;;;;;9.98;5.18;;;;;;;17.20;46.41;100768.38;5086794;28;20035;-33
2022/05/08 08:24:40;;;;;;;8.02;3.17;;;;;;;17.53;45.69;100772.09;5101997;28;20479;-30
2022/05/08 08:27:07;;;;;;;15.23;4.93;;;;;;;17.79;44.84;100767.03;5099834;28;20027;-33
2022/05/08 08:29:33;;;;;;;6.30;3.70;;;;;;;17.98;44.43;100781.91;5087820;28;20494;-30
2022/05/08 08:31:58;;;;;;;9.23;3.33;;;;;;;17.68;43.94;100772.31;5092482;28;20036;-29
2022/05/08 08:34:24;;;;;;;7.15;3.63;;;;;;;18.03;45.33;100771.16;5099246;28;20555;-31
2022/05/08 08:36:49;;;;;;;7.90;3.60;;;;;;;17.98;43.22;100754.09;5097045;28;20024;-29
2022/05/08 08:39:16;;;;;;;6.85;3.40;;;;;;;18.43;45.19;100766.50;5099037;28;20052;-29
2022/05/08 08:41:45;;;;;;;8.10;2.88;;;;;;;18.57;43.15;100748.00;5098648;28;20036;-30
2022/05/08 08:49:49;;;;;;;5.88;3.13;;;;;;;18.92;42.31;100765.63;5088605;28;21976;-36
2022/05/08 08:52:15;;;;;;;8.43;3.03;;;;;;;18.77;47.13;100747.38;5070259;28;20027;-29
2022/05/08 08:54:41;;;;;;;12.50;3.72;;;;;;;19.07;42.47;100752.25;5053481;28;20035;-29
2022/05/08 08:57:06;;;;;;;5.63;2.85;;;;;;;19.18;42.32;100756.66;5070167;28;20036;-29
2022/05/08 08:59:32;;;;;;;7.22;3.25;;;;;;;19.44;40.46;100756.81;5088485;28;20080;-29
2022/05/08 09:01:57;;;;;;;9.75;3.40;;;;;;;19.24;40.86;100735.88;5088484;28;20040;-34
2022/05/08 09:04:23;;;;;;;8.35;3.33;;;;;;;19.43;40.08;100750.63;5098068;28;20028;-33
2022/05/08 09:06:49;;;;;;;6.15;3.30;;;;;;;19.55;40.27;100739.56;5107674;28;20024;-30
2022/05/08 09:09:31;;;;;;;8.15;3.28;;;;;;;19.66;40.14;100746.69;5089467;28;20019;-30
2022/05/08 09:11:58;;;;;;;8.40;3.72;;;;;;;19.67;42.06;100748.28;5081903;28;20032;-29
2022/05/08 09:14:27;;;;;;;10.30;3.33;;;;;;;19.89;40.17;100725.69;5087806;28;20057;-32
2022/05/08 09:16:53;;;;;;;8.20;4.00;;;;;;;19.78;41.92;100738.38;5069326;28;20623;-30
2022/05/08 09:19:36;;;;;;;7.32;3.83;;;;;;;19.97;44.31;100732.50;5066927;28;20078;-31
2022/05/08 09:22:03;;;;;;;9.95;3.75;;;;;;;20.22;41.09;100729.06;5081208;28;20092;-31
2022/05/08 09:24:30;;;;;;;8.80;4.10;;;;;;;20.46;42.19;100734.78;5089712;28;20521;-31
2022/05/08 09:27:10;;;;;;;9.75;4.40;;;;;;;20.52;40.83;100711.25;5108067;28;20261;-32
2022/05/08 09:29:35;;;;;;;10.65;4.50;;;;;;;20.42;43.71;100728.28;5107705;28;20027;-29
2022/05/08 09:32:01;;;;;;;8.45;3.75;;;;;;;20.64;42.66;100728.09;5089091;28;20396;-34
2022/05/08 09:34:27;;;;;;;7.38;3.90;;;;;;;20.89;43.05;100712.91;5105729;28;20047;-28
2022/05/08 09:37:08;;;;;;;8.43;3.65;;;;;;;21.05;41.47;100709.91;5107660;28;20036;-29
2022/05/08 09:39:34;;;;;;;9.52;3.70;;;;;;;19.80;44.22;100700.25;5107454;28;20079;-30
2022/05/08 09:41:59;;;;;;;7.55;3.80;;;;;;;20.53;43.34;100713.66;5107693;28;20078;-29
2022/05/08 09:44:25;;;;;;;7.30;3.63;;;;;;;20.95;44.07;100699.06;5107444;28;20476;-30
2022/05/08 09:46:50;;;;;;;8.48;4.38;;;;;;;20.53;41.27;100726.41;5107457;28;20106;-29
2022/05/08 09:49:20;;;;;;;10.25;3.83;;;;;;;20.85;41.65;100699.88;5107816;28;20020;-29
2022/05/08 09:51:47;;;;;;;16.98;5.05;;;;;;;20.84;41.83;100703.69;5105865;28;20027;-31
2022/05/08 09:54:17;;;;;;;12.32;3.97;;;;;;;20.91;40.27;100689.84;5088069;28;20057;-30
2022/05/08 09:56:44;;;;;;;11.55;4.03;;;;;;;21.21;40.80;100699.84;5074745;28;20023;-29
2022/05/08 09:59:13;;;;;;;7.00;3.93;;;;;;;21.08;40.95;100700.41;5107246;28;20059;-29
2022/05/08 10:01:39;;;;;;;6.85;3.60;;;;;;;20.95;38.85;100704.50;5105558;28;20279;-30
2022/05/08 10:04:05;;;;;;;9.05;3.92;;;;;;;20.92;40.72;100687.94;5071716;28;20445;-36
2022/05/08 10:06:33;;;;;;;6.55;3.33;;;;;;;21.31;38.52;100701.72;5085772;28;20065;-30
2022/05/08 10:14:30;;;;;;;11.63;3.92;;;;;;;22.02;38.92;100697.94;5107102;28;20030;-29
2022/05/08 10:17:06;;;;;;;6.72;3.63;;;;;;;22.43;36.73;100681.44;5088676;28;20027;-29
2022/05/08 10:19:32;;;;;;;6.80;3.38;;;;;;;22.60;35.58;100691.88;5106348;28;20779;-29
2022/05/08 10:21:59;;;;;;;10.55;3.25;;;;;;;22.16;35.82;100691.91;5088399;28;20031;-33
2022/05/08 10:24:35;;;;;;;7.47;3.17;;;;;;;22.20;35.98;100682.09;5106630;28;20059;-35
2022/05/08 10:27:29;;;;;;;7.03;3.38;;;;;;;22.74;36.37;100683.91;5088264;28;20027;-30
2022/05/08 10:29:57;;;;;;;7.72;3.20;;;;;;;22.54;34.12;100674.00;5106558;28;20406;-31
2022/05/08 10:32:32;;;;;;;7.97;3.55;;;;;;;22.60;36.62;100678.28;5087833;28;20028;-30
2022/05/08 10:35:03;;;;;;;6.70;3.60;;;;;;;22.87;34.00;100672.34;5106442;28;20026;-29
2022/05/08 10:37:30;;;;;;;7.38;3.25;;;;;;;23.16;32.77;100670.75;5087212;28;20179;-36
2022/05/08 10:39:57;;;;;;;5.80;3.20;;;;;;;22.57;32.48;100650.88;5106072;28;20134;-32
2022/05/08 10:42:50;;;;;;;5.80;2.88;;;;;;;23.17;34.50;100667.72;5104467;28;20674;-29
2022/05/08 10:45:33;;;;;;;7.30;3.20;;;;;;;23.13;34.21;100663.13;5105432;28;20067;-30
2022/05/08 10:48:01;;;;;;;6.00;3.38;;;;;;;23.54;32.37;100657.22;5106263;28;20107;-35
2022/05/08 10:50:26;;;;;;;6.05;3.28;;;;;;;23.70;34.61;100655.13;5087588;28;20061;-31
2022/05/08 10:52:52;;;;;;;6.55;3.25;;;;;;;23.20;32.47;100652.75;5106188;28;20055;-34
2022/05/08 10:55:18;;;;;;;8.13;3.30;;;;;;;23.24;31.51;100627.38;5101500;28;20399;-32
2022/05/08 10:57:53;;;;;;;5.80;2.47;;;;;;;23.94;30.71;100631.38;5095916;28;20032;-31
2022/05/08 11:00:24;;;;;;;5.07;2.63;;;;;;;23.83;32.29;100627.22;5069876;28;20036;-29
2022/05/08 11:02:55;;;;;;;6.50;3.22;;;;;;;23.57;31.93;100624.78;5073566;28;20051;-30
2022/05/08 11:05:20;;;;;;;9.75;3.60;;;;;;;23.77;33.43;100642.00;5085469;28;20028;-34
2022/05/08 11:07:55;;;;;;;6.43;2.90;;;;;;;24.03;31.50;100631.56;5084026;28;20027;-34
2022/05/08 11:10:23;;;;;;;6.70;2.95;;;;;;;23.70;31.38;100638.78;5085721;28;20109;-34
2022/05/08 11:12:56;;;;;;;5.20;2.75;;;;;;;22.97;31.13;100616.25;5085823;28;20103;-29
2022/05/08 11:15:22;;;;;;;4.88;2.67;;;;;;;23.86;30.70;100621.16;5085362;28;20039;-29
2022/05/08 11:18:03;;;;;;;7.15;2.85;;;;;;;24.00;31.11;100624.75;5085950;28;20050;-32
2022/05/08 11:20:31;;;;;;;5.45;2.53;;;;;;;24.12;31.57;100628.97;5098593;28;20039;-31
2022/05/08 11:22:57;;;;;;;6.45;2.50;;;;;;;23.92;29.15;100621.91;5105940;28;20028;-30
2022/05/08 11:25:22;;;;;;;7.50;3.75;;;;;;;24.25;30.60;100617.28;5087315;28;20400;-32
2022/05/08 11:27:55;;;;;;;5.97;3.00;;;;;;;24.49;32.06;100617.19;5105596;28;20061;-32
2022/05/08 11:30:32;;;;;;;8.38;3.47;;;;;;;23.80;30.14;100606.81;5087144;28;20026;-29
2022/05/08 11:36:04;;;;;;;7.10;2.80;;;;;;;24.43;29.45;100597.38;5103159;28;20059;-31
2022/05/08 11:38:39;;;;;;;5.03;2.67;;;;;;;24.85;28.78;100608.41;5105545;28;20150;-35
2022/05/08 11:41:10;;;;;;;5.43;2.58;;;;;;;24.40;28.79;100611.59;5100158;28;20023;-33
2022/05/08 11:43:40;;;;;;;5.95;2.42;;;;;;;25.09;28.57;100608.22;5093255;28;20023;-30
2022/05/08 11:46:07;;;;;;;5.13;2.40;;;;;;;25.01;27.90;100617.91;5086357;28;20043;-31